Latest Coastal Weather Observations for Gold Coast Seaway

IDQ60701

Issued at 1:52 am EST Saturday 19 October 2019 (issued every 10 minutes, with the page automatically refreshed every 10 minutes)

About coastal observations | Map of coastal stations | Coastal observations for QLD | Marine services | Other Formats
Station Details ID: 040764 Name: GOLD COAST SEAWAY Lat: -27.94 Lon: 153.43 Height: 2.98 m
Data from the previous 72 hours. | See also: Recent months at Gold Coast Seaway
Date/Time
EST
Wind Sea
Height
m
Swell Vis
km
Cloud Weather Temp
°C
Press
hPa
Rain since
9am
mm
Dir  Spd
kts
Gust
kts
Height
m
Period
s
Dir
19/01:30am NE 2 6 - - - - - - - 19.1 1017.5 0.0
19/01:00am CALM 0 0 - - - - - - - 19.1 1017.8 0.0
19/12:30am NE 2 5 - - - - - - - 19.1 1018.1 0.0
19/12:00am E 5 5 - - - - - - - 20.1 1018.2 0.0
 
Date/Time
EST
Wind Sea
Height
m
Swell Vis
km
Cloud Weather Temp
°C
Press
hPa
Rain since
9am
mm
Dir  Spd
kts
Gust
kts
Height
m
Period
s
Dir
18/11:30pm E 6 6 - - - - - - - 19.8 1018.2 0.0
18/11:00pm ESE 6 7 - - - - - - - 19.9 1018.1 0.0
18/10:30pm ESE 6 7 - - - - - - - 19.8 1018.4 0.0
18/10:00pm ESE 6 7 - - - - - - - 19.9 1018.5 0.0
18/09:30pm ESE 7 8 - - - - - - - 20.1 1018.5 0.0
18/09:00pm ESE 8 10 - - - - - - - 20.3 1018.3 0.0
18/08:30pm ESE 8 9 - - - - - - - 20.5 1018.2 0.0
18/08:00pm ESE 9 11 - - - - - - - 20.4 1017.9 0.0
18/07:30pm ESE 11 13 - - - - - - - 20.7 1017.5 0.0
18/07:00pm ESE 10 12 - - - - - - - 20.9 1017.1 0.0
18/06:30pm ESE 10 11 - - - - - - - 20.8 1016.7 0.0
18/06:00pm ESE 12 15 - - - - - - - 21.1 1016.4 0.0
18/05:30pm ESE 11 14 - - - - - - - 21.3 1016.3 0.0
18/05:00pm ESE 11 14 - - - - - - - 21.9 1016.1 0.0
18/04:30pm ESE 12 14 - - - - - - - 22.4 1015.6 0.0
18/04:00pm ESE 10 12 - - - - - - - 22.9 1015.3 0.0
18/03:30pm ESE 12 14 - - - - - - - 23.3 1015.4 0.0
18/03:00pm ESE 11 13 - - - - - - - 23.6 1015.6 0.0
18/02:30pm ESE 11 12 - - - - - - - 23.6 1015.8 0.0
18/02:00pm ESE 9 11 - - - - - - - 24.0 1016.0 0.0
18/01:30pm SE 7 8 - - - - - - - 24.7 1016.4 0.0
18/01:00pm SE 8 9 - - - - - - - 24.4 1016.8 0.0
18/12:30pm SE 9 10 - - - - - - - 24.4 1017.1 0.0
18/12:00pm SE 10 12 - - - - - - - 24.7 1017.2 0.0
18/11:30am SSE 10 12 - - - - - - - 24.9 1017.5 0.0
18/11:00am SSE 11 14 - - - - - - - 24.3 1017.6 0.0
18/10:30am SSE 12 15 - - - - - - - 24.0 1017.8 0.0
18/10:00am SSE 13 15 - - - - - - - 23.8 1017.8 0.0
18/09:30am SSE 14 16 - - - - - - - 24.2 1018.0 0.0
18/09:00am SSE 13 16 - - - - - - - 23.8 1017.9 0.0
18/08:30am SSE 12 15 - - - - - - - 23.2 1017.4 0.0
18/08:00am SSE 12 15 - - - - - - - 22.6 1017.4 0.0
18/07:30am SSE 13 15 - - - - - - - 21.6 1017.0 0.0
18/07:00am SSE 16 18 - - - - - - - 20.2 1016.7 0.0
18/06:30am SSE 17 21 - - - - - - - 20.5 1016.3 0.0
18/06:00am SSE 19 23 - - - - - - - 20.0 1015.4 0.0
18/05:30am SSE 21 26 - - - - - - - 19.7 1014.8 0.0
18/05:00am SSE 24 31 - - - - - - - 19.9 1013.9 0.0
18/04:36am SE 17 27 - - - - - - - 20.1 1013.3 0.0
18/04:30am SE 15 18 - - - - - - - 20.1 1013.3 0.0
18/04:28am SE 15 18 - - - - - - - 19.8 1013.4 0.0
18/04:00am NW 1 4 - - - - - - - 18.7 1012.7 0.0
18/03:30am N 5 6 - - - - - - - 19.4 1012.3 0.0
18/03:00am N 5 7 - - - - - - - 19.6 1012.1 0.0
18/02:30am N 3 7 - - - - - - - 19.8 1012.2 0.0
18/02:00am S 4 5 - - - - - - - 19.8 1012.1 0.0
18/01:30am WNW 9 11 - - - - - - - 20.6 1011.8 0.0
18/01:00am WNW 3 6 - - - - - - - 19.8 1012.2 0.0
18/12:30am NW 4 6 - - - - - - - 19.9 1012.8 0.0
18/12:00am NW 8 10 - - - - - - - 20.4 1012.9 0.0
 
Date/Time
EST
Wind Sea
Height
m
Swell Vis
km
Cloud Weather Temp
°C
Press
hPa
Rain since
9am
mm
Dir  Spd
kts
Gust
kts
Height
m
Period
s
Dir
17/11:30pm NNW 8 10 - - - - - - - 20.5 1013.1 0.0
17/11:00pm NNW 9 10 - - - - - - - 20.7 1013.3 0.0
17/10:30pm NNW 5 15 - - - - - - - 20.2 1013.4 0.0
17/10:00pm N 1 4 - - - - - - - 20.2 1012.8 0.0
17/09:30pm NNW 6 7 - - - - - - - 20.7 1012.8 0.0
17/09:00pm WNW 4 5 - - - - - - - 20.8 1012.7 0.0
17/08:30pm WSW 7 8 - - - - - - - 21.0 1012.6 0.0
17/08:00pm WSW 6 9 - - - - - - - 20.9 1012.7 0.0
17/07:30pm NW 5 6 - - - - - - - 20.8 1012.6 0.0
17/07:00pm WNW 7 8 - - - - - - - 20.6 1012.4 0.0
17/06:30pm NW 8 9 - - - - - - - 20.7 1011.8 0.0
17/06:00pm NNW 6 13 - - - - - - - 20.4 1011.3 0.0
17/05:30pm NE 18 22 - - - - - - - 21.5 1010.3 0.0
17/05:12pm NNE 17 27 - - - - - - - 21.6 1009.8 0.0
17/05:06pm WNW 13 27 - - - - - - - 21.0 1011.0 0.0
17/05:03pm W 12 27 - - - - - - - 22.4 1013.9 0.0
17/05:00pm WSW 9 15 - - - - - - - 23.7 1013.5 0.0
17/04:57pm SSW 7 15 - - - - - - - 24.0 1012.8 0.0
17/04:41pm N 15 20 - - - - - - - 22.5 1010.8 0.0
17/04:30pm N 18 21 - - - - - - - 22.6 1008.8 0.0
17/04:00pm N 21 28 - - - - - - - 22.9 1008.6 0.0
17/03:30pm N 19 23 - - - - - - - 23.4 1008.4 0.0
17/03:00pm N 21 26 - - - - - - - 24.3 1008.5 0.0
17/02:30pm N 19 24 - - - - - - - 24.7 1009.1 0.0
17/02:00pm NNE 20 24 - - - - - - - 24.7 1009.8 0.0
17/01:30pm NNE 19 24 - - - - - - - 25.0 1010.4 0.0
17/01:00pm N 19 25 - - - - - - - 25.3 1011.0 0.0
17/12:30pm N 19 23 - - - - - - - 25.2 1011.5 0.0
17/12:00pm NNE 19 23 - - - - - - - 25.6 1011.8 0.0
17/11:30am N 21 26 - - - - - - - 27.2 1012.3 0.0
17/11:00am N 19 25 - - - - - - - 26.4 1012.8 0.0
17/10:30am N 19 26 - - - - - - - 26.9 1013.2 0.0
17/10:00am N 19 25 - - - - - - - 26.1 1013.5 0.0
17/09:30am N 17 22 - - - - - - - 25.9 1014.0 0.0
17/09:03am N 17 27 - - - - - - - 24.8 1014.0 0.0
17/09:00am N 18 27 - - - - - - - 24.9 1014.1 0.0
17/08:30am NNW 16 21 - - - - - - - 24.7 1014.2 0.0
17/08:00am NNW 15 23 - - - - - - - 23.9 1014.0 0.0
17/07:30am NNW 14 21 - - - - - - - 22.2 1013.8 0.0
17/07:00am NNW 12 20 - - - - - - - 22.1 1013.6 0.0
17/06:30am NNW 12 19 - - - - - - - 21.6 1013.9 0.0
17/06:00am NNW 14 19 - - - - - - - 21.4 1013.7 0.0
17/05:30am N 13 18 - - - - - - - 21.0 1013.4 0.0
17/05:00am N 15 23 - - - - - - - 20.9 1013.4 0.0
17/04:30am N 13 17 - - - - - - - 20.7 1013.7 0.0
17/04:00am N 10 14 - - - - - - - 20.8 1013.6 0.0
17/03:30am NNW 8 12 - - - - - - - 20.8 1013.5 0.0
17/03:00am NW 7 10 - - - - - - - 21.0 1014.2 0.0
17/02:30am WNW 11 14 - - - - - - - 21.0 1014.5 0.0
17/02:00am NNW 11 20 - - - - - - - 21.4 1013.0 0.0
17/01:30am NNW 14 21 - - - - - - - 21.4 1013.1 0.0
17/01:00am NNW 16 23 - - - - - - - 21.6 1013.6 0.0
17/12:49am NNW 16 26 - - - - - - - 21.6 1013.6 0.0
17/12:30am NNW 12 19 - - - - - - - 21.7 1013.3 0.0
17/12:00am NNW 15 21 - - - - - - - 21.9 1013.7 0.0
 
Date/Time
EST
Wind Sea
Height
m
Swell Vis
km
Cloud Weather Temp
°C
Press
hPa
Rain since
9am
mm
Dir  Spd
kts
Gust
kts
Height
m
Period
s
Dir
16/11:30pm NNW 16 22 - - - - - - - 21.9 1013.7 0.0
16/11:00pm NNW 14 22 - - - - - - - 22.0 1013.9 0.0
16/10:30pm NNW 14 20 - - - - - - - 22.1 1013.7 0.0
16/10:00pm NNW 13 17 - - - - - - - 22.0 1013.9 0.0
16/09:30pm N 13 18 - - - - - - - 21.9 1014.0 0.0
16/09:00pm NNW 12 17 - - - - - - - 22.0 1014.1 0.0
16/08:30pm N 12 16 - - - - - - - 22.0 1013.9 0.0
16/08:00pm N 8 12 - - - - - - - 21.6 1013.6 0.0
16/07:30pm N 6 9 - - - - - - - 21.2 1013.6 0.0
16/07:00pm N 12 15 - - - - - - - 21.5 1013.4 0.0
16/06:30pm N 15 17 - - - - - - - 21.6 1013.2 0.0
16/06:00pm N 16 18 - - - - - - - 21.9 1013.2 0.0
16/05:30pm N 17 19 - - - - - - - 22.3 1012.9 0.0
16/05:00pm N 20 24 - - - - - - - 22.5 1012.6 0.0
16/04:30pm NNE 20 24 - - - - - - - 23.1 1012.5 0.0
16/04:00pm NNE 20 23 - - - - - - - 23.6 1012.4 0.0
16/03:30pm N 20 23 - - - - - - - 23.8 1012.3 0.0
16/03:00pm NNE 20 23 - - - - - - - 24.2 1012.2 0.0
16/02:30pm NNE 19 22 - - - - - - - 24.8 1012.4 0.0
16/02:00pm NNE 19 22 - - - - - - - 25.2 1012.7 0.0
16/01:30pm NNE 18 21 - - - - - - - 25.4 1012.8 0.0
16/01:00pm NNE 18 21 - - - - - - - 25.9 1012.9 0.0
16/12:30pm NNE 16 19 - - - - - - - 26.1 1013.3 0.0
16/12:00pm N 15 20 - - - - - - - 27.3 1013.8 0.0
16/11:30am N 14 18 - - - - - - - 27.3 1014.4 0.0
16/11:00am N 15 20 - - - - - - - 26.6 1014.8 0.0
16/10:30am N 13 18 - - - - - - - 26.4 1015.1 0.0
16/10:00am N 11 16 - - - - - - - 25.0 1015.7 0.0
16/09:30am NNW 9 13 - - - - - - - 25.0 1016.0 0.0
16/09:00am NNW 11 16 - - - - - - - 23.8 1016.4 0.0
16/08:30am NNW 10 15 - - - - - - - 22.9 1016.2 0.0
16/08:00am NW 10 14 - - - - - - - 21.9 1016.3 0.0
16/07:30am NNW 10 14 - - - - - - - 21.3 1016.1 0.0
16/07:00am NNW 7 10 - - - - - - - 20.6 1015.8 0.0
16/06:30am NW 7 9 - - - - - - - 20.0 1015.7 0.0
16/06:00am NW 6 7 - - - - - - - 19.7 1015.2 0.0
16/05:30am NW 6 8 - - - - - - - 19.5 1015.0 0.0
16/05:00am NW 6 8 - - - - - - - 19.6 1014.7 0.0
16/04:30am NNW 5 8 - - - - - - - 18.9 1014.4 0.0
16/04:00am NW 4 4 - - - - - - - 18.1 1014.6 0.0
16/03:30am NNW 5 6 - - - - - - - 18.8 1014.3 0.0
16/03:00am NNW 4 4 - - - - - - - 18.5 1014.1 0.0
16/02:30am NNW 4 5 - - - - - - - 19.2 1014.1 0.0
16/02:00am NW 4 5 - - - - - - - 19.2 1014.3 0.0

Other formats

Comma delimited format used in spreadsheet applications
http://www.bom.gov.au/fwo/IDQ60701/IDQ60701.94580.axf

JavaScript Object Notation format (JSON) in row-major order
http://www.bom.gov.au/fwo/IDQ60701/IDQ60701.94580.json

Data quality

Most of these data are generated automatically and are frequently updated. Quality checks on data are not normally performed. It is possible for incorrect values to appear. Refer to information at About Latest Weather Observations and please check the disclaimer before using these data.